sensor_id;sensor_type;location;lat;lon;timestamp;temperature;humidity
57576;DHT22;43412;-33.800;150.804;2022-10-16T00:01:41;28.90;78.10
57576;DHT22;43412;-33.800;150.804;2022-10-16T00:04:08;29.20;76.40
57576;DHT22;43412;-33.800;150.804;2022-10-16T00:06:34;29.20;76.20
57576;DHT22;43412;-33.800;150.804;2022-10-16T00:09:01;29.10;74.90
57576;DHT22;43412;-33.800;150.804;2022-10-16T00:11:35;28.30;74.70
57576;DHT22;43412;-33.800;150.804;2022-10-16T00:14:06;27.70;76.30
57576;DHT22;43412;-33.800;150.804;2022-10-16T00:16:33;27.00;76.80
57576;DHT22;43412;-33.800;150.804;2022-10-16T00:19:00;26.60;77.00
57576;DHT22;43412;-33.800;150.804;2022-10-16T00:21:27;26.70;80.20
57576;DHT22;43412;-33.800;150.804;2022-10-16T00:23:58;26.50;77.10
57576;DHT22;43412;-33.800;150.804;2022-10-16T00:26:26;26.00;78.40
57576;DHT22;43412;-33.800;150.804;2022-10-16T00:28:53;25.90;80.00
57576;DHT22;43412;-33.800;150.804;2022-10-16T00:31:20;26.20;79.00
57576;DHT22;43412;-33.800;150.804;2022-10-16T00:33:47;26.80;79.40
57576;DHT22;43412;-33.800;150.804;2022-10-16T00:36:15;27.40;79.70
57576;DHT22;43412;-33.800;150.804;2022-10-16T00:38:42;27.70;78.80
57576;DHT22;43412;-33.800;150.804;2022-10-16T00:41:17;27.40;77.00
57576;DHT22;43412;-33.800;150.804;2022-10-16T00:43:45;26.90;78.10
57576;DHT22;43412;-33.800;150.804;2022-10-16T00:46:20;27.10;81.50
57576;DHT22;43412;-33.800;150.804;2022-10-16T00:49:29;27.70;81.70
57576;DHT22;43412;-33.800;150.804;2022-10-16T00:51:41;28.10;81.40
57576;DHT22;43412;-33.800;150.804;2022-10-16T00:54:12;27.90;78.10
57576;DHT22;43412;-33.800;150.804;2022-10-16T00:56:39;27.90;78.80
57576;DHT22;43412;-33.800;150.804;2022-10-16T00:59:07;28.00;79.50
57576;DHT22;43412;-33.800;150.804;2022-10-16T01:01:36;28.40;80.80
57576;DHT22;43412;-33.800;150.804;2022-10-16T01:04:03;28.80;79.80
57576;DHT22;43412;-33.800;150.804;2022-10-16T01:17:34;29.30;75.90
57576;DHT22;43412;-33.800;150.804;2022-10-16T01:20:14;28.80;75.70
57576;DHT22;43412;-33.800;150.804;2022-10-16T01:28:16;28.40;75.70
57576;DHT22;43412;-33.800;150.804;2022-10-16T01:30:43;28.70;77.30
57576;DHT22;43412;-33.800;150.804;2022-10-16T01:33:14;29.00;76.60
57576;DHT22;43412;-33.800;150.804;2022-10-16T01:35:45;29.20;74.40
57576;DHT22;43412;-33.800;150.804;2022-10-16T01:38:21;29.10;77.60
57576;DHT22;43412;-33.800;150.804;2022-10-16T01:40:50;29.10;74.80
57576;DHT22;43412;-33.800;150.804;2022-10-16T01:43:25;28.70;74.60
57576;DHT22;43412;-33.800;150.804;2022-10-16T01:45:53;28.70;78.80
57576;DHT22;43412;-33.800;150.804;2022-10-16T01:48:20;29.00;76.50
57576;DHT22;43412;-33.800;150.804;2022-10-16T01:53:46;29.60;75.70
57576;DHT22;43412;-33.800;150.804;2022-10-16T01:56:14;29.70;74.50
57576;DHT22;43412;-33.800;150.804;2022-10-16T01:58:45;29.50;75.30
57576;DHT22;43412;-33.800;150.804;2022-10-16T02:01:13;30.00;79.90
57576;DHT22;43412;-33.800;150.804;2022-10-16T02:03:41;30.40;78.00
57576;DHT22;43412;-33.800;150.804;2022-10-16T02:06:09;29.90;75.90
57576;DHT22;43412;-33.800;150.804;2022-10-16T02:08:36;29.60;76.40
57576;DHT22;43412;-33.800;150.804;2022-10-16T02:11:04;29.80;76.30
57576;DHT22;43412;-33.800;150.804;2022-10-16T02:13:48;29.90;74.90
57576;DHT22;43412;-33.800;150.804;2022-10-16T02:16:16;30.00;74.80
57576;DHT22;43412;-33.800;150.804;2022-10-16T02:18:43;29.90;76.70
57576;DHT22;43412;-33.800;150.804;2022-10-16T02:21:15;29.70;75.80
57576;DHT22;43412;-33.800;150.804;2022-10-16T02:23:57;29.70;77.80
57576;DHT22;43412;-33.800;150.804;2022-10-16T02:26:36;29.50;76.70
57576;DHT22;43412;-33.800;150.804;2022-10-16T02:29:08;29.20;76.40
57576;DHT22;43412;-33.800;150.804;2022-10-16T02:31:38;28.80;76.70
57576;DHT22;43412;-33.800;150.804;2022-10-16T02:34:07;28.30;76.50
57576;DHT22;43412;-33.800;150.804;2022-10-16T02:36:36;28.30;77.00
57576;DHT22;43412;-33.800;150.804;2022-10-16T02:39:03;28.60;77.10
57576;DHT22;43412;-33.800;150.804;2022-10-16T02:41:30;29.10;78.50
57576;DHT22;43412;-33.800;150.804;2022-10-16T02:43:57;29.40;77.50
57576;DHT22;43412;-33.800;150.804;2022-10-16T02:46:24;29.00;76.50
57576;DHT22;43412;-33.800;150.804;2022-10-16T02:48:51;28.70;78.00
57576;DHT22;43412;-33.800;150.804;2022-10-16T02:51:17;28.40;77.50
57576;DHT22;43412;-33.800;150.804;2022-10-16T02:53:44;28.40;79.60
57576;DHT22;43412;-33.800;150.804;2022-10-16T02:56:11;29.20;78.20
57576;DHT22;43412;-33.800;150.804;2022-10-16T02:58:37;29.80;76.50
57576;DHT22;43412;-33.800;150.804;2022-10-16T03:01:04;30.20;74.70
57576;DHT22;43412;-33.800;150.804;2022-10-16T03:03:31;30.20;75.60
57576;DHT22;43412;-33.800;150.804;2022-10-16T03:05:57;30.50;74.80
57576;DHT22;43412;-33.800;150.804;2022-10-16T03:08:24;29.80;73.80
57576;DHT22;43412;-33.800;150.804;2022-10-16T03:10:51;28.90;74.40
57576;DHT22;43412;-33.800;150.804;2022-10-16T03:13:18;28.40;77.30
57576;DHT22;43412;-33.800;150.804;2022-10-16T03:15:46;27.70;77.50
57576;DHT22;43412;-33.800;150.804;2022-10-16T03:18:12;27.30;79.10
57576;DHT22;43412;-33.800;150.804;2022-10-16T03:20:39;26.90;79.60
57576;DHT22;43412;-33.800;150.804;2022-10-16T03:23:06;26.60;80.50
57576;DHT22;43412;-33.800;150.804;2022-10-16T03:25:34;26.30;81.10
57576;DHT22;43412;-33.800;150.804;2022-10-16T03:28:00;26.00;81.60
57576;DHT22;43412;-33.800;150.804;2022-10-16T03:30:27;25.70;81.80
57576;DHT22;43412;-33.800;150.804;2022-10-16T03:32:54;25.50;82.50
57576;DHT22;43412;-33.800;150.804;2022-10-16T03:35:21;25.20;83.20
57576;DHT22;43412;-33.800;150.804;2022-10-16T03:37:47;25.00;83.70
57576;DHT22;43412;-33.800;150.804;2022-10-16T03:40:14;24.80;84.70
57576;DHT22;43412;-33.800;150.804;2022-10-16T03:42:44;24.60;84.90
57576;DHT22;43412;-33.800;150.804;2022-10-16T03:45:11;24.50;85.30
57576;DHT22;43412;-33.800;150.804;2022-10-16T03:47:38;24.50;84.70
57576;DHT22;43412;-33.800;150.804;2022-10-16T03:50:04;24.50;85.30
57576;DHT22;43412;-33.800;150.804;2022-10-16T03:52:31;24.60;85.50
57576;DHT22;43412;-33.800;150.804;2022-10-16T03:54:58;24.70;85.90
57576;DHT22;43412;-33.800;150.804;2022-10-16T03:57:25;25.20;86.10
57576;DHT22;43412;-33.800;150.804;2022-10-16T03:59:52;25.70;84.00
57576;DHT22;43412;-33.800;150.804;2022-10-16T04:02:18;26.10;83.60
57576;DHT22;43412;-33.800;150.804;2022-10-16T04:04:45;26.50;83.20
57576;DHT22;43412;-33.800;150.804;2022-10-16T04:07:12;26.70;82.90
57576;DHT22;43412;-33.800;150.804;2022-10-16T04:09:38;26.60;82.80
57576;DHT22;43412;-33.800;150.804;2022-10-16T04:12:05;26.60;82.80
57576;DHT22;43412;-33.800;150.804;2022-10-16T04:14:32;26.30;82.30
57576;DHT22;43412;-33.800;150.804;2022-10-16T04:16:58;26.40;83.10
57576;DHT22;43412;-33.800;150.804;2022-10-16T04:19:25;26.70;82.50
57576;DHT22;43412;-33.800;150.804;2022-10-16T04:21:52;26.70;82.30
57576;DHT22;43412;-33.800;150.804;2022-10-16T04:24:18;26.80;83.00
57576;DHT22;43412;-33.800;150.804;2022-10-16T04:26:45;26.90;83.80
57576;DHT22;43412;-33.800;150.804;2022-10-16T04:29:12;27.00;83.20
57576;DHT22;43412;-33.800;150.804;2022-10-16T04:31:38;27.00;83.20
57576;DHT22;43412;-33.800;150.804;2022-10-16T04:34:05;27.00;81.90
57576;DHT22;43412;-33.800;150.804;2022-10-16T04:36:32;27.00;82.30
57576;DHT22;43412;-33.800;150.804;2022-10-16T04:38:58;26.90;82.40
57576;DHT22;43412;-33.800;150.804;2022-10-16T04:41:25;26.80;83.40
57576;DHT22;43412;-33.800;150.804;2022-10-16T04:43:52;26.80;83.60
57576;DHT22;43412;-33.800;150.804;2022-10-16T04:46:18;26.80;82.30
57576;DHT22;43412;-33.800;150.804;2022-10-16T04:48:45;26.80;83.00
57576;DHT22;43412;-33.800;150.804;2022-10-16T04:51:12;26.70;83.90
57576;DHT22;43412;-33.800;150.804;2022-10-16T04:53:39;26.50;84.10
57576;DHT22;43412;-33.800;150.804;2022-10-16T04:56:06;26.50;84.20
57576;DHT22;43412;-33.800;150.804;2022-10-16T04:58:32;26.40;83.90
57576;DHT22;43412;-33.800;150.804;2022-10-16T05:00:59;26.30;85.20
57576;DHT22;43412;-33.800;150.804;2022-10-16T05:03:26;26.40;83.30
57576;DHT22;43412;-33.800;150.804;2022-10-16T05:05:52;26.30;83.50
57576;DHT22;43412;-33.800;150.804;2022-10-16T05:08:19;26.30;83.60
57576;DHT22;43412;-33.800;150.804;2022-10-16T05:10:46;26.30;83.50
57576;DHT22;43412;-33.800;150.804;2022-10-16T05:13:13;26.20;84.50
57576;DHT22;43412;-33.800;150.804;2022-10-16T05:15:39;26.30;84.60
57576;DHT22;43412;-33.800;150.804;2022-10-16T05:18:06;26.50;84.40
57576;DHT22;43412;-33.800;150.804;2022-10-16T05:20:33;26.60;83.40
57576;DHT22;43412;-33.800;150.804;2022-10-16T05:22:59;26.30;83.80
57576;DHT22;43412;-33.800;150.804;2022-10-16T05:25:26;26.10;84.00
57576;DHT22;43412;-33.800;150.804;2022-10-16T05:27:53;25.90;84.90
57576;DHT22;43412;-33.800;150.804;2022-10-16T05:30:19;25.70;85.10
57576;DHT22;43412;-33.800;150.804;2022-10-16T05:32:47;25.60;85.90
57576;DHT22;43412;-33.800;150.804;2022-10-16T05:35:14;25.50;85.40
57576;DHT22;43412;-33.800;150.804;2022-10-16T05:37:41;25.40;85.90
57576;DHT22;43412;-33.800;150.804;2022-10-16T05:40:08;25.20;86.60
57576;DHT22;43412;-33.800;150.804;2022-10-16T05:42:35;25.10;86.50
57576;DHT22;43412;-33.800;150.804;2022-10-16T05:45:01;25.10;86.30
57576;DHT22;43412;-33.800;150.804;2022-10-16T05:47:28;24.80;86.50
57576;DHT22;43412;-33.800;150.804;2022-10-16T05:49:55;24.70;86.60
57576;DHT22;43412;-33.800;150.804;2022-10-16T05:52:21;24.60;87.40
57576;DHT22;43412;-33.800;150.804;2022-10-16T05:54:48;24.50;87.80
57576;DHT22;43412;-33.800;150.804;2022-10-16T05:57:15;24.60;89.10
57576;DHT22;43412;-33.800;150.804;2022-10-16T05:59:42;24.70;88.20
57576;DHT22;43412;-33.800;150.804;2022-10-16T06:02:12;24.70;87.70
57576;DHT22;43412;-33.800;150.804;2022-10-16T06:04:39;24.60;88.10
57576;DHT22;43412;-33.800;150.804;2022-10-16T06:07:05;24.40;89.30
57576;DHT22;43412;-33.800;150.804;2022-10-16T06:09:32;24.20;89.80
57576;DHT22;43412;-33.800;150.804;2022-10-16T06:11:59;24.00;90.00
57576;DHT22;43412;-33.800;150.804;2022-10-16T06:14:25;23.80;90.10
57576;DHT22;43412;-33.800;150.804;2022-10-16T06:16:52;23.60;90.60
57576;DHT22;43412;-33.800;150.804;2022-10-16T06:19:19;23.50;90.50
57576;DHT22;43412;-33.800;150.804;2022-10-16T06:21:46;23.30;90.70
57576;DHT22;43412;-33.800;150.804;2022-10-16T06:24:13;23.10;91.00
57576;DHT22;43412;-33.800;150.804;2022-10-16T06:26:40;23.10;91.20
57576;DHT22;43412;-33.800;150.804;2022-10-16T06:29:07;23.00;91.40
57576;DHT22;43412;-33.800;150.804;2022-10-16T06:31:34;23.00;91.70
57576;DHT22;43412;-33.800;150.804;2022-10-16T06:34:01;22.90;91.80
57576;DHT22;43412;-33.800;150.804;2022-10-16T06:36:30;22.70;92.00
57576;DHT22;43412;-33.800;150.804;2022-10-16T06:38:57;22.60;92.10
57576;DHT22;43412;-33.800;150.804;2022-10-16T06:41:23;22.40;92.30
57576;DHT22;43412;-33.800;150.804;2022-10-16T06:43:50;22.30;92.50
57576;DHT22;43412;-33.800;150.804;2022-10-16T06:46:19;22.20;92.60
57576;DHT22;43412;-33.800;150.804;2022-10-16T06:48:46;22.20;92.80
57576;DHT22;43412;-33.800;150.804;2022-10-16T06:51:13;22.20;92.90
57576;DHT22;43412;-33.800;150.804;2022-10-16T06:53:41;22.10;93.00
57576;DHT22;43412;-33.800;150.804;2022-10-16T06:56:18;22.10;93.00
57576;DHT22;43412;-33.800;150.804;2022-10-16T06:58:45;22.00;93.10
57576;DHT22;43412;-33.800;150.804;2022-10-16T07:01:13;22.00;93.20
57576;DHT22;43412;-33.800;150.804;2022-10-16T07:03:40;21.80;93.40
57576;DHT22;43412;-33.800;150.804;2022-10-16T07:06:08;21.80;93.50
57576;DHT22;43412;-33.800;150.804;2022-10-16T07:08:35;21.70;93.70
57576;DHT22;43412;-33.800;150.804;2022-10-16T07:11:03;21.70;93.80
57576;DHT22;43412;-33.800;150.804;2022-10-16T07:13:32;21.70;93.90
57576;DHT22;43412;-33.800;150.804;2022-10-16T07:16:06;21.70;93.80
57576;DHT22;43412;-33.800;150.804;2022-10-16T07:18:33;21.70;93.80
57576;DHT22;43412;-33.800;150.804;2022-10-16T07:21:04;21.70;94.00
57576;DHT22;43412;-33.800;150.804;2022-10-16T07:23:30;21.60;94.10
57576;DHT22;43412;-33.800;150.804;2022-10-16T07:25:57;21.60;94.10
57576;DHT22;43412;-33.800;150.804;2022-10-16T07:28:24;21.40;94.20
57576;DHT22;43412;-33.800;150.804;2022-10-16T07:30:50;21.30;94.40
57576;DHT22;43412;-33.800;150.804;2022-10-16T07:33:17;21.20;94.40
57576;DHT22;43412;-33.800;150.804;2022-10-16T07:35:50;21.20;94.50
57576;DHT22;43412;-33.800;150.804;2022-10-16T07:38:17;21.10;94.70
57576;DHT22;43412;-33.800;150.804;2022-10-16T07:40:44;20.90;95.20
57576;DHT22;43412;-33.800;150.804;2022-10-16T07:43:11;20.70;95.40
57576;DHT22;43412;-33.800;150.804;2022-10-16T07:45:38;20.60;95.70
57576;DHT22;43412;-33.800;150.804;2022-10-16T07:48:12;20.50;95.50
57576;DHT22;43412;-33.800;150.804;2022-10-16T07:50:39;20.50;95.70
57576;DHT22;43412;-33.800;150.804;2022-10-16T07:53:05;20.40;95.70
57576;DHT22;43412;-33.800;150.804;2022-10-16T07:55:32;20.40;95.80
57576;DHT22;43412;-33.800;150.804;2022-10-16T07:57:58;20.40;95.70
57576;DHT22;43412;-33.800;150.804;2022-10-16T08:00:25;20.30;95.70
57576;DHT22;43412;-33.800;150.804;2022-10-16T08:02:52;20.30;95.80
57576;DHT22;43412;-33.800;150.804;2022-10-16T08:05:18;20.30;95.60
57576;DHT22;43412;-33.800;150.804;2022-10-16T08:07:49;20.30;95.60
57576;DHT22;43412;-33.800;150.804;2022-10-16T08:10:16;20.20;95.80
57576;DHT22;43412;-33.800;150.804;2022-10-16T08:12:43;20.10;96.00
57576;DHT22;43412;-33.800;150.804;2022-10-16T08:15:10;20.00;96.20
57576;DHT22;43412;-33.800;150.804;2022-10-16T08:17:36;19.80;96.20
57576;DHT22;43412;-33.800;150.804;2022-10-16T08:20:03;19.80;96.30
57576;DHT22;43412;-33.800;150.804;2022-10-16T08:22:30;19.80;96.30
57576;DHT22;43412;-33.800;150.804;2022-10-16T08:24:57;19.80;96.50
57576;DHT22;43412;-33.800;150.804;2022-10-16T08:27:24;19.70;96.50
57576;DHT22;43412;-33.800;150.804;2022-10-16T08:29:50;19.60;96.70
57576;DHT22;43412;-33.800;150.804;2022-10-16T08:32:17;19.50;96.90
57576;DHT22;43412;-33.800;150.804;2022-10-16T08:34:43;19.40;97.30
57576;DHT22;43412;-33.800;150.804;2022-10-16T08:37:10;19.20;97.40
57576;DHT22;43412;-33.800;150.804;2022-10-16T08:39:39;19.10;97.50
57576;DHT22;43412;-33.800;150.804;2022-10-16T08:44:56;18.90;98.10
57576;DHT22;43412;-33.800;150.804;2022-10-16T08:47:31;18.80;98.40
57576;DHT22;43412;-33.800;150.804;2022-10-16T08:50:09;18.80;98.60
57576;DHT22;43412;-33.800;150.804;2022-10-16T08:52:38;18.70;98.80
57576;DHT22;43412;-33.800;150.804;2022-10-16T08:55:05;18.70;99.20
57576;DHT22;43412;-33.800;150.804;2022-10-16T08:57:32;18.70;99.10
57576;DHT22;43412;-33.800;150.804;2022-10-16T09:00:11;18.60;99.40
57576;DHT22;43412;-33.800;150.804;2022-10-16T09:03:29;18.60;99.70
57576;DHT22;43412;-33.800;150.804;2022-10-16T09:05:33;18.50;99.90
57576;DHT22;43412;-33.800;150.804;2022-10-16T09:13:27;18.30;99.90
57576;DHT22;43412;-33.800;150.804;2022-10-16T09:21:09;18.20;99.90
57576;DHT22;43412;-33.800;150.804;2022-10-16T09:23:37;18.20;99.90
57576;DHT22;43412;-33.800;150.804;2022-10-16T09:26:05;18.10;99.90
57576;DHT22;43412;-33.800;150.804;2022-10-16T09:28:34;18.10;99.90
57576;DHT22;43412;-33.800;150.804;2022-10-16T09:31:01;18.00;99.90
57576;DHT22;43412;-33.800;150.804;2022-10-16T09:33:37;18.00;99.90
57576;DHT22;43412;-33.800;150.804;2022-10-16T09:36:05;18.00;99.90
57576;DHT22;43412;-33.800;150.804;2022-10-16T09:38:33;17.90;99.90
57576;DHT22;43412;-33.800;150.804;2022-10-16T09:41:20;17.90;99.90
57576;DHT22;43412;-33.800;150.804;2022-10-16T09:43:49;17.80;99.90
57576;DHT22;43412;-33.800;150.804;2022-10-16T09:47:00;17.80;99.90
57576;DHT22;43412;-33.800;150.804;2022-10-16T09:49:21;17.80;99.90
57576;DHT22;43412;-33.800;150.804;2022-10-16T09:51:49;17.80;99.90
57576;DHT22;43412;-33.800;150.804;2022-10-16T09:54:17;17.90;99.90
57576;DHT22;43412;-33.800;150.804;2022-10-16T09:56:44;17.90;99.90
57576;DHT22;43412;-33.800;150.804;2022-10-16T09:59:16;18.00;99.90
57576;DHT22;43412;-33.800;150.804;2022-10-16T10:01:46;18.00;99.90
57576;DHT22;43412;-33.800;150.804;2022-10-16T10:04:14;18.00;99.90
57576;DHT22;43412;-33.800;150.804;2022-10-16T10:07:01;18.00;99.90
57576;DHT22;43412;-33.800;150.804;2022-10-16T10:09:31;18.00;99.90
57576;DHT22;43412;-33.800;150.804;2022-10-16T10:12:01;18.00;99.90
57576;DHT22;43412;-33.800;150.804;2022-10-16T10:14:31;18.00;99.90
57576;DHT22;43412;-33.800;150.804;2022-10-16T10:19:42;17.90;99.90
57576;DHT22;43412;-33.800;150.804;2022-10-16T10:22:38;17.90;99.90
57576;DHT22;43412;-33.800;150.804;2022-10-16T10:27:30;17.80;99.90
57576;DHT22;43412;-33.800;150.804;2022-10-16T10:45:51;17.50;99.90
57576;DHT22;43412;-33.800;150.804;2022-10-16T10:51:03;17.40;99.90
57576;DHT22;43412;-33.800;150.804;2022-10-16T10:58:57;17.50;99.90
57576;DHT22;43412;-33.800;150.804;2022-10-16T11:07:10;17.60;99.90
57576;DHT22;43412;-33.800;150.804;2022-10-16T11:10:15;17.60;99.90
57576;DHT22;43412;-33.800;150.804;2022-10-16T11:12:37;17.60;99.90
57576;DHT22;43412;-33.800;150.804;2022-10-16T11:17:40;17.70;99.90
57576;DHT22;43412;-33.800;150.804;2022-10-16T11:22:38;17.70;99.90
57576;DHT22;43412;-33.800;150.804;2022-10-16T11:25:13;17.70;99.90
57576;DHT22;43412;-33.800;150.804;2022-10-16T11:36:08;17.80;99.90
57576;DHT22;43412;-33.800;150.804;2022-10-16T11:43:43;17.70;99.90
57576;DHT22;43412;-33.800;150.804;2022-10-16T11:46:19;17.70;99.90
57576;DHT22;43412;-33.800;150.804;2022-10-16T11:51:43;17.70;99.90
57576;DHT22;43412;-33.800;150.804;2022-10-16T11:56:41;17.60;99.90
57576;DHT22;43412;-33.800;150.804;2022-10-16T11:59:14;17.60;99.90
57576;DHT22;43412;-33.800;150.804;2022-10-16T12:01:48;17.60;99.90
57576;DHT22;43412;-33.800;150.804;2022-10-16T12:04:21;17.60;99.90
57576;DHT22;43412;-33.800;150.804;2022-10-16T12:06:58;17.60;99.90
57576;DHT22;43412;-33.800;150.804;2022-10-16T12:09:32;17.60;99.90
57576;DHT22;43412;-33.800;150.804;2022-10-16T12:12:02;17.50;99.90
57576;DHT22;43412;-33.800;150.804;2022-10-16T12:17:03;17.60;99.90
57576;DHT22;43412;-33.800;150.804;2022-10-16T12:19:32;17.50;99.90
57576;DHT22;43412;-33.800;150.804;2022-10-16T12:22:00;17.60;99.90
57576;DHT22;43412;-33.800;150.804;2022-10-16T12:24:36;17.50;99.90
57576;DHT22;43412;-33.800;150.804;2022-10-16T12:27:04;17.50;99.90
57576;DHT22;43412;-33.800;150.804;2022-10-16T12:29:41;17.50;99.90
57576;DHT22;43412;-33.800;150.804;2022-10-16T12:32:30;17.40;99.90
57576;DHT22;43412;-33.800;150.804;2022-10-16T12:35:05;17.40;99.90
57576;DHT22;43412;-33.800;150.804;2022-10-16T12:37:33;17.40;99.90
57576;DHT22;43412;-33.800;150.804;2022-10-16T12:40:11;17.30;99.90
57576;DHT22;43412;-33.800;150.804;2022-10-16T12:42:39;17.30;99.90
57576;DHT22;43412;-33.800;150.804;2022-10-16T12:47:51;17.20;99.90
57576;DHT22;43412;-33.800;150.804;2022-10-16T12:50:23;17.20;99.90
57576;DHT22;43412;-33.800;150.804;2022-10-16T12:52:50;17.20;99.90
57576;DHT22;43412;-33.800;150.804;2022-10-16T12:55:18;17.20;99.90
57576;DHT22;43412;-33.800;150.804;2022-10-16T13:08:35;17.10;99.90
57576;DHT22;43412;-33.800;150.804;2022-10-16T13:16:22;17.10;99.90
57576;DHT22;43412;-33.800;150.804;2022-10-16T13:19:08;17.10;99.90
57576;DHT22;43412;-33.800;150.804;2022-10-16T13:26:52;17.00;99.90
57576;DHT22;43412;-33.800;150.804;2022-10-16T13:29:22;17.00;99.90
57576;DHT22;43412;-33.800;150.804;2022-10-16T13:31:49;17.00;99.90
57576;DHT22;43412;-33.800;150.804;2022-10-16T13:34:17;17.00;99.90
57576;DHT22;43412;-33.800;150.804;2022-10-16T13:36:46;17.00;99.90
57576;DHT22;43412;-33.800;150.804;2022-10-16T13:39:26;17.00;99.90
57576;DHT22;43412;-33.800;150.804;2022-10-16T13:42:03;17.00;99.90
57576;DHT22;43412;-33.800;150.804;2022-10-16T13:44:33;17.00;99.90
57576;DHT22;43412;-33.800;150.804;2022-10-16T13:47:02;17.00;99.90
57576;DHT22;43412;-33.800;150.804;2022-10-16T13:49:28;17.00;99.90
57576;DHT22;43412;-33.800;150.804;2022-10-16T13:51:56;17.00;99.90
57576;DHT22;43412;-33.800;150.804;2022-10-16T13:54:23;17.00;99.90
57576;DHT22;43412;-33.800;150.804;2022-10-16T13:56:50;17.00;99.90
57576;DHT22;43412;-33.800;150.804;2022-10-16T14:01:49;17.10;99.90
57576;DHT22;43412;-33.800;150.804;2022-10-16T14:04:19;17.00;99.90
57576;DHT22;43412;-33.800;150.804;2022-10-16T14:06:48;17.00;99.90
57576;DHT22;43412;-33.800;150.804;2022-10-16T14:09:25;17.00;99.90
57576;DHT22;43412;-33.800;150.804;2022-10-16T14:11:54;17.00;99.90
57576;DHT22;43412;-33.800;150.804;2022-10-16T14:14:21;17.00;99.90
57576;DHT22;43412;-33.800;150.804;2022-10-16T14:16:48;17.00;99.90
57576;DHT22;43412;-33.800;150.804;2022-10-16T14:19:26;17.00;99.90
57576;DHT22;43412;-33.800;150.804;2022-10-16T14:21:53;17.00;99.90
57576;DHT22;43412;-33.800;150.804;2022-10-16T14:24:27;17.00;99.90
57576;DHT22;43412;-33.800;150.804;2022-10-16T14:26:57;17.00;99.90
57576;DHT22;43412;-33.800;150.804;2022-10-16T14:29:24;17.00;99.90
57576;DHT22;43412;-33.800;150.804;2022-10-16T14:31:58;17.00;99.90
57576;DHT22;43412;-33.800;150.804;2022-10-16T14:34:52;17.00;99.90
57576;DHT22;43412;-33.800;150.804;2022-10-16T14:37:18;17.00;99.90
57576;DHT22;43412;-33.800;150.804;2022-10-16T14:39:50;17.00;99.90
57576;DHT22;43412;-33.800;150.804;2022-10-16T14:42:18;17.00;99.90
57576;DHT22;43412;-33.800;150.804;2022-10-16T14:44:45;17.00;99.90
57576;DHT22;43412;-33.800;150.804;2022-10-16T14:47:16;16.90;99.90
57576;DHT22;43412;-33.800;150.804;2022-10-16T14:49:47;16.90;99.90
57576;DHT22;43412;-33.800;150.804;2022-10-16T14:52:14;16.90;99.90
57576;DHT22;43412;-33.800;150.804;2022-10-16T14:54:41;16.90;99.90
57576;DHT22;43412;-33.800;150.804;2022-10-16T15:00:09;16.90;99.90
57576;DHT22;43412;-33.800;150.804;2022-10-16T15:02:39;16.80;99.90
57576;DHT22;43412;-33.800;150.804;2022-10-16T15:07:38;16.80;99.90
57576;DHT22;43412;-33.800;150.804;2022-10-16T15:10:08;16.80;99.90
57576;DHT22;43412;-33.800;150.804;2022-10-16T15:12:35;16.80;99.90
57576;DHT22;43412;-33.800;150.804;2022-10-16T15:15:02;16.80;99.90
57576;DHT22;43412;-33.800;150.804;2022-10-16T15:17:28;16.80;99.90
57576;DHT22;43412;-33.800;150.804;2022-10-16T15:19:55;16.80;99.90
57576;DHT22;43412;-33.800;150.804;2022-10-16T15:22:24;16.70;99.90
57576;DHT22;43412;-33.800;150.804;2022-10-16T15:24:50;16.80;99.90
57576;DHT22;43412;-33.800;150.804;2022-10-16T15:27:17;16.80;99.90
57576;DHT22;43412;-33.800;150.804;2022-10-16T15:29:44;16.70;99.90
57576;DHT22;43412;-33.800;150.804;2022-10-16T15:32:10;16.70;99.90
57576;DHT22;43412;-33.800;150.804;2022-10-16T15:34:37;16.70;99.90
57576;DHT22;43412;-33.800;150.804;2022-10-16T15:37:04;16.70;99.90
57576;DHT22;43412;-33.800;150.804;2022-10-16T15:39:30;16.70;99.90
57576;DHT22;43412;-33.800;150.804;2022-10-16T15:41:57;16.70;99.90
57576;DHT22;43412;-33.800;150.804;2022-10-16T15:44:24;16.70;99.90
57576;DHT22;43412;-33.800;150.804;2022-10-16T15:46:55;16.70;99.90
57576;DHT22;43412;-33.800;150.804;2022-10-16T15:49:22;16.70;99.90
57576;DHT22;43412;-33.800;150.804;2022-10-16T15:51:49;16.70;99.90
57576;DHT22;43412;-33.800;150.804;2022-10-16T15:54:15;16.60;99.90
57576;DHT22;43412;-33.800;150.804;2022-10-16T15:56:42;16.60;99.90
57576;DHT22;43412;-33.800;150.804;2022-10-16T15:59:11;16.50;99.90
57576;DHT22;43412;-33.800;150.804;2022-10-16T16:01:37;16.50;99.90
57576;DHT22;43412;-33.800;150.804;2022-10-16T16:04:04;16.50;99.90
57576;DHT22;43412;-33.800;150.804;2022-10-16T16:06:31;16.40;99.90
57576;DHT22;43412;-33.800;150.804;2022-10-16T16:08:58;16.40;99.90
57576;DHT22;43412;-33.800;150.804;2022-10-16T16:11:25;16.30;99.90
57576;DHT22;43412;-33.800;150.804;2022-10-16T16:13:52;16.30;99.90
57576;DHT22;43412;-33.800;150.804;2022-10-16T16:16:20;16.30;99.90
57576;DHT22;43412;-33.800;150.804;2022-10-16T16:18:47;16.20;99.90
57576;DHT22;43412;-33.800;150.804;2022-10-16T16:21:15;16.20;99.90
57576;DHT22;43412;-33.800;150.804;2022-10-16T16:23:41;16.20;99.90
57576;DHT22;43412;-33.800;150.804;2022-10-16T16:28:38;16.20;99.90
57576;DHT22;43412;-33.800;150.804;2022-10-16T16:31:05;16.20;99.90
57576;DHT22;43412;-33.800;150.804;2022-10-16T16:33:32;16.20;99.90
57576;DHT22;43412;-33.800;150.804;2022-10-16T16:35:59;16.20;99.90
57576;DHT22;43412;-33.800;150.804;2022-10-16T16:38:26;16.20;99.90
57576;DHT22;43412;-33.800;150.804;2022-10-16T16:40:53;16.10;99.90
57576;DHT22;43412;-33.800;150.804;2022-10-16T16:43:26;16.10;99.90
57576;DHT22;43412;-33.800;150.804;2022-10-16T16:45:53;16.00;99.90
57576;DHT22;43412;-33.800;150.804;2022-10-16T16:48:20;16.00;99.90
57576;DHT22;43412;-33.800;150.804;2022-10-16T16:50:47;16.00;99.90
57576;DHT22;43412;-33.800;150.804;2022-10-16T16:53:14;15.90;99.90
57576;DHT22;43412;-33.800;150.804;2022-10-16T16:55:41;15.90;99.90
57576;DHT22;43412;-33.800;150.804;2022-10-16T16:58:08;15.80;99.90
57576;DHT22;43412;-33.800;150.804;2022-10-16T17:00:34;15.80;99.90
57576;DHT22;43412;-33.800;150.804;2022-10-16T17:03:01;15.90;99.90
57576;DHT22;43412;-33.800;150.804;2022-10-16T17:05:28;15.90;99.90
57576;DHT22;43412;-33.800;150.804;2022-10-16T17:07:54;15.90;99.90